Observation data for Morton on 07/11/2020      Previous  Date  Next       Current Mesonet Observations  Soil Data  Daily Summary Page  Observations in Plain Language
KMNS 110500Z 16013KT 30/12 A3007 RMK A01 T03040120  RH  034%=      5-min Rain = 0
KMNS 110505Z 16012G17KT 30/12 A3007 RMK A01 T03020122  RH  034%=      5-min Rain = 0
KMNS 110510Z 16012G17KT 30/12 A3007 RMK A01 T03020123  RH  035%=      5-min Rain = 0
KMNS 110515Z 16012G17KT 30/12 A3007 RMK A01 T03010124  RH  035%=      5-min Rain = 0
KMNS 110520Z 16012KT 30/13 A3007 RMK A01 T02990126  RH  036%=      5-min Rain = 0
KMNS 110525Z 16011KT 30/13 A3007 RMK A01 T02990127  RH  036%=      5-min Rain = 0
KMNS 110530Z 16012KT 30/13 A3008 RMK A01 T02970128  RH  037%=      5-min Rain = 0
KMNS 110535Z 16012KT 30/13 A3008 RMK A01 T02980130  RH  037%=      5-min Rain = 0
KMNS 110540Z 16012KT 30/13 A3008 RMK A01 T02970131  RH  038%=      5-min Rain = 0
KMNS 110545Z 16011KT 30/13 A3008 RMK A01 T02960132  RH  038%=      5-min Rain = 0
KMNS 110550Z 16011KT 30/13 A3008 RMK A01 T02950133  RH  038%=      5-min Rain = 0
KMNS 110555Z 16011KT 30/13 A3008 RMK A01 T02950134  RH  039%=      5-min Rain = 0
KMNS 110600Z 16011KT 29/13 A3008 RMK A01 T02940134  RH  039%=      5-min Rain = 0
KMNS 110605Z 16010KT 29/14 A3008 RMK A01 T02920135  RH  040%=      5-min Rain = 0
KMNS 110610Z 16011KT 29/14 A3008 RMK A01 T02910136  RH  040%=      5-min Rain = 0
KMNS 110615Z 16010G16KT 29/14 A3008 RMK A01 T02890136  RH  041%=      5-min Rain = 0
KMNS 110620Z 17011KT 29/14 A3008 RMK A01 T02880137  RH  041%=      5-min Rain = 0
KMNS 110625Z 17010KT 29/14 A3008 RMK A01 T02870137  RH  042%=      5-min Rain = 0
KMNS 110630Z 17010KT 29/14 A3008 RMK A01 T02860138  RH  042%=      5-min Rain = 0
KMNS 110635Z 17011KT 29/14 A3008 RMK A01 T02850138  RH  042%=      5-min Rain = 0
KMNS 110640Z 17011KT 28/14 A3008 RMK A01 T02840138  RH  043%=      5-min Rain = 0
KMNS 110645Z 17011KT 28/14 A3008 RMK A01 T02840139  RH  043%=      5-min Rain = 0
KMNS 110650Z 17012G17KT 28/14 A3008 RMK A01 T02830139  RH  043%=      5-min Rain = 0
KMNS 110655Z 18013KT 28/14 A3007 RMK A01 T02820139  RH  043%=      5-min Rain = 0
KMNS 110700Z 18012KT 28/14 A3007 RMK A01 T02820139  RH  043%=      5-min Rain = 0
KMNS 110705Z 18012KT 28/14 A3007 RMK A01 T02810140  RH  044%=      5-min Rain = 0
KMNS 110710Z 18013KT 28/14 A3006 RMK A01 T02810140  RH  044%=      5-min Rain = 0
KMNS 110715Z 18013KT 28/14 A3006 RMK A01 T02810141  RH  044%=      5-min Rain = 0
KMNS 110720Z 18012G18KT 28/14 A3007 RMK A01 T02800141  RH  044%=      5-min Rain = 0
KMNS 110725Z 19012KT 28/14 A3006 RMK A01 T02790141  RH  045%=      5-min Rain = 0
KMNS 110730Z 19012KT 28/14 A3007 RMK A01 T02770142  RH  045%=      5-min Rain = 0
KMNS 110735Z 19012KT 28/14 A3007 RMK A01 T02760142  RH  046%=      5-min Rain = 0
KMNS 110740Z 18012KT 28/14 A3007 RMK A01 T02760142  RH  046%=      5-min Rain = 0
KMNS 110745Z 19011G16KT 28/14 A3007 RMK A01 T02750142  RH  046%=      5-min Rain = 0
KMNS 110750Z 19011KT 27/14 A3007 RMK A01 T02720143  RH  047%=      5-min Rain = 0
KMNS 110755Z 19011KT 27/14 A3007 RMK A01 T02710143  RH  048%=      5-min Rain = 0
KMNS 110800Z 20010KT 27/14 A3007 RMK A01 T02680144  RH  048%=      5-min Rain = 0
KMNS 110805Z 20009KT 27/14 A3007 RMK A01 T02660143  RH  049%=      5-min Rain = 0
KMNS 110810Z 20009KT 26/14 A3007 RMK A01 T02640143  RH  049%=      5-min Rain = 0
KMNS 110815Z 20009KT 26/14 A3007 RMK A01 T02620143  RH  050%=      5-min Rain = 0
KMNS 110820Z 20009KT 26/14 A3007 RMK A01 T02610143  RH  050%=      5-min Rain = 0
KMNS 110825Z 20010KT 26/14 A3007 RMK A01 T02610143  RH  050%=      5-min Rain = 0
KMNS 110830Z 20009KT 26/14 A3007 RMK A01 T02610142  RH  050%=      5-min Rain = 0
KMNS 110835Z 20009KT 26/14 A3007 RMK A01 T02600142  RH  050%=      5-min Rain = 0
KMNS 110840Z 20008KT 26/14 A3007 RMK A01 T02610142  RH  050%=      5-min Rain = 0
KMNS 110845Z 20008KT 26/14 A3007 RMK A01 T02610142  RH  050%=      5-min Rain = 0
KMNS 110850Z 20008KT 26/14 A3007 RMK A01 T02600142  RH  050%=      5-min Rain = 0
KMNS 110855Z 19008KT 26/14 A3007 RMK A01 T02580142  RH  051%=      5-min Rain = 0
KMNS 110900Z 20008KT 26/14 A3007 RMK A01 T02570142  RH  051%=      5-min Rain = 0
KMNS 110905Z 20007KT 26/14 A3008 RMK A01 T02560142  RH  051%=      5-min Rain = 0
KMNS 110910Z 20007KT 26/14 A3008 RMK A01 T02560142  RH  051%=      5-min Rain = 0
KMNS 110915Z 20007KT 26/14 A3008 RMK A01 T02570141  RH  051%=      5-min Rain = 0
KMNS 110920Z 19006KT 25/14 A3008 RMK A01 T02540141  RH  052%=      5-min Rain = 0
KMNS 110925Z 19006KT 25/14 A3008 RMK A01 T02540141  RH  052%=      5-min Rain = 0
KMNS 110930Z 19006KT 25/14 A3009 RMK A01 T02520141  RH  052%=      5-min Rain = 0
KMNS 110935Z 19006KT 25/14 A3009 RMK A01 T02500140  RH  053%=      5-min Rain = 0
KMNS 110940Z 19006KT 25/14 A3009 RMK A01 T02480140  RH  053%=      5-min Rain = 0
KMNS 110945Z 18006KT 25/14 A3009 RMK A01 T02470141  RH  054%=      5-min Rain = 0
KMNS 110950Z 18006KT 25/14 A3009 RMK A01 T02490141  RH  053%=      5-min Rain = 0
KMNS 110955Z 18007KT 25/14 A3009 RMK A01 T02480140  RH  053%=      5-min Rain = 0
KMNS 111000Z 19006KT 25/14 A3009 RMK A01 T02460140  RH  054%=      5-min Rain = 0
KMNS 111005Z 19006KT 24/14 A3009 RMK A01 T02420140  RH  055%=      5-min Rain = 0
KMNS 111010Z 18005KT 24/14 A3009 RMK A01 T02380140  RH  056%=      5-min Rain = 0
KMNS 111015Z 19005KT 24/14 A3009 RMK A01 T02360140  RH  057%=      5-min Rain = 0
KMNS 111020Z 20005KT 23/14 A3009 RMK A01 T02340140  RH  058%=      5-min Rain = 0
KMNS 111025Z 21005KT 23/14 A3009 RMK A01 T02340140  RH  058%=      5-min Rain = 0
KMNS 111030Z 22006KT 23/14 A3009 RMK A01 T02340141  RH  058%=      5-min Rain = 0
KMNS 111035Z 21006KT 24/14 A3009 RMK A01 T02400140  RH  056%=      5-min Rain = 0
KMNS 111040Z 21006KT 24/14 A3009 RMK A01 T02380139  RH  056%=      5-min Rain = 0
KMNS 111045Z 21007KT 24/14 A3009 RMK A01 T02380139  RH  056%=      5-min Rain = 0
KMNS 111050Z 21007KT 24/14 A301 RMK A01 T02370139  RH  056%=      5-min Rain = 0
KMNS 111055Z 21007KT 24/14 A301 RMK A01 T02390139  RH  056%=      5-min Rain = 0
KMNS 111100Z 21007KT 24/14 A301 RMK A01 T02390138  RH  055%=      5-min Rain = 0
KMNS 111105Z 21008KT 24/14 A301 RMK A01 T02410137  RH  055%=      5-min Rain = 0
KMNS 111110Z 21008KT 24/14 A301 RMK A01 T02420137  RH  054%=      5-min Rain = 0
KMNS 111115Z 22009KT 24/14 A301 RMK A01 T02440137  RH  053%=      5-min Rain = 0
KMNS 111120Z 21009KT 24/14 A301 RMK A01 T02420136  RH  054%=      5-min Rain = 0
KMNS 111125Z 22009KT 24/14 A301 RMK A01 T02430136  RH  053%=      5-min Rain = 0
KMNS 111130Z 22008KT 24/14 A301 RMK A01 T02440136  RH  053%=      5-min Rain = 0
KMNS 111135Z 22008KT 24/14 A301 RMK A01 T02440136  RH  053%=      5-min Rain = 0
KMNS 111140Z 22009KT 24/14 A301 RMK A01 T02440136  RH  053%=      5-min Rain = 0
KMNS 111145Z 22008KT 24/14 A301 RMK A01 T02440136  RH  053%=      5-min Rain = 0
KMNS 111150Z 21008KT 24/14 A301 RMK A01 T02420136  RH  054%=      5-min Rain = 0
KMNS 111155Z 21008KT 24/14 A301 RMK A01 T02410136  RH  054%=      5-min Rain = 0
KMNS 111200Z 21008KT 24/14 A301 RMK A01 T02410136  RH  054%=      5-min Rain = 0
KMNS 111205Z 21008KT 24/14 A301 RMK A01 T02400136  RH  054%=      5-min Rain = 0
KMNS 111210Z 22008KT 24/14 A301 RMK A01 T02410136  RH  054%=      5-min Rain = 0
KMNS 111215Z 22007KT 24/14 A301 RMK A01 T02410136  RH  054%=      5-min Rain = 0
KMNS 111220Z 22006KT 24/14 A301 RMK A01 T02420136  RH  054%=      5-min Rain = 0
KMNS 111225Z 21006KT 24/14 A3011 RMK A01 T02430137  RH  054%=      5-min Rain = 0
KMNS 111230Z 21006KT 24/14 A3011 RMK A01 T02430137  RH  054%=      5-min Rain = 0
KMNS 111235Z 21006KT 24/14 A3011 RMK A01 T02440138  RH  054%=      5-min Rain = 0
KMNS 111240Z 21006KT 25/14 A3011 RMK A01 T02450138  RH  054%=      5-min Rain = 0
KMNS 111245Z 21007KT 25/14 A3011 RMK A01 T02480138  RH  053%=      5-min Rain = 0
KMNS 111250Z 20007KT 25/14 A3012 RMK A01 T02520138  RH  051%=      5-min Rain = 0
KMNS 111255Z 20006KT 25/14 A3012 RMK A01 T02530140  RH  052%=      5-min Rain = 0
KMNS 111300Z 20007KT 25/14 A3012 RMK A01 T02540141  RH  051%=      5-min Rain = 0
KMNS 111305Z 20007KT 26/14 A3012 RMK A01 T02580141  RH  050%=      5-min Rain = 0
KMNS 111310Z 21007KT 26/14 A3012 RMK A01 T02620140  RH  049%=      5-min Rain = 0
KMNS 111315Z 21007KT 27/14 A3012 RMK A01 T02660140  RH  048%=      5-min Rain = 0
KMNS 111320Z 22007KT 27/14 A3012 RMK A01 T02690140  RH  047%=      5-min Rain = 0
KMNS 111325Z 22007KT 27/14 A3012 RMK A01 T02740141  RH  046%=      5-min Rain = 0
KMNS 111330Z 22007KT 28/14 A3012 RMK A01 T02780142  RH  045%=      5-min Rain = 0
KMNS 111335Z 22009KT 28/14 A3012 RMK A01 T02810141  RH  044%=      5-min Rain = 0
KMNS 111340Z 22010KT 29/14 A3012 RMK A01 T02850140  RH  043%=      5-min Rain = 0
KMNS 111345Z 22009KT 29/14 A3012 RMK A01 T02880141  RH  042%=      5-min Rain = 0
KMNS 111350Z 22012KT 29/14 A3012 RMK A01 T02890138  RH  041%=      5-min Rain = 0
KMNS 111355Z 22013KT 29/14 A3012 RMK A01 T02910138  RH  041%=      5-min Rain = 0
KMNS 111400Z 22011KT 30/14 A3013 RMK A01 T02950138  RH  040%=      5-min Rain = 0
KMNS 111405Z 22011G16KT 30/14 A3013 RMK A01 T02980138  RH  039%=      5-min Rain = 0
KMNS 111410Z 22010KT 30/14 A3013 RMK A01 T03010139  RH  039%=      5-min Rain = 0
KMNS 111415Z 21013KT 30/14 A3013 RMK A01 T03030137  RH  038%=      5-min Rain = 0
KMNS 111420Z 21013KT 30/14 A3013 RMK A01 T03040137  RH  038%=      5-min Rain = 0
KMNS 111425Z 21013KT 31/14 A3013 RMK A01 T03070137  RH  037%=      5-min Rain = 0
KMNS 111430Z 21012KT 31/14 A3012 RMK A01 T03090137  RH  036%=      5-min Rain = 0
KMNS 111435Z 21012KT 31/14 A3012 RMK A01 T03110136  RH  036%=      5-min Rain = 0
KMNS 111440Z 21013KT 31/14 A3013 RMK A01 T03130135  RH  035%=      5-min Rain = 0
KMNS 111445Z 21010KT 32/14 A3012 RMK A01 T03170136  RH  035%=      5-min Rain = 0
KMNS 111450Z 20012KT 32/14 A3012 RMK A01 T03200135  RH  034%=      5-min Rain = 0
KMNS 111455Z 20012KT 32/13 A3012 RMK A01 T03210133  RH  033%=      5-min Rain = 0
KMNS 111500Z 19011KT 33/14 A3012 RMK A01 T03270136  RH  033%=      5-min Rain = 0
KMNS 111505Z 19012KT 33/14 A3012 RMK A01 T03280135  RH  032%=      5-min Rain = 0
KMNS 111510Z 20011KT 33/13 A3012 RMK A01 T03310134  RH  032%=      5-min Rain = 0
KMNS 111515Z 19011KT 33/13 A3012 RMK A01 T03340133  RH  031%=      5-min Rain = 0
KMNS 111520Z 20013KT 34/13 A3013 RMK A01 T03350129  RH  030%=      5-min Rain = 0
KMNS 111525Z 20012KT 34/13 A3013 RMK A01 T03360126  RH  029%=      5-min Rain = 0
KMNS 111530Z 20011KT 34/13 A3012 RMK A01 T03410128  RH  029%=      5-min Rain = 0
KMNS 111535Z 21011KT 34/13 A3012 RMK A01 T03430126  RH  028%=      5-min Rain = 0
KMNS 111540Z 22011KT 35/12 A3012 RMK A01 T03450124  RH  027%=      5-min Rain = 0
KMNS 111545Z 22009KT 35/12 A3012 RMK A01 T03500122  RH  026%=      5-min Rain = 0
KMNS 111550Z 22010G15KT 35/12 A3012 RMK A01 T03540122  RH  026%=      5-min Rain = 0
KMNS 111555Z 22009KT 35/12 A3012 RMK A01 T03520122  RH  026%=      5-min Rain = 0
KMNS 111600Z 23009KT 36/12 A3012 RMK A01 T03550119  RH  025%=      5-min Rain = 0
KMNS 111605Z 23009KT 36/12 A3013 RMK A01 T03590117  RH  024%=      5-min Rain = 0
KMNS 111610Z 22009KT 36/12 A3013 RMK A01 T03550120  RH  025%=      5-min Rain = 0
KMNS 111615Z 22009KT 36/12 A3013 RMK A01 T03600115  RH  024%=      5-min Rain = 0
KMNS 111620Z 22009KT 36/12 A3012 RMK A01 T03630115  RH  023%=      5-min Rain = 0
KMNS 111625Z 22009KT 37/11 A3012 RMK A01 T03670110  RH  022%=      5-min Rain = 0
KMNS 111630Z 24008KT 37/11 A3012 RMK A01 T03740109  RH  021%=      5-min Rain = 0
KMNS 111635Z 22011KT 37/10 A3012 RMK A01 T03740102  RH  020%=      5-min Rain = 0
KMNS 111640Z 22011KT 37/10 A3012 RMK A01 T03740101  RH  020%=      5-min Rain = 0
KMNS 111645Z 24009KT 37/10 A3012 RMK A01 T03740102  RH  020%=      5-min Rain = 0
KMNS 111650Z 22011KT 38/09 A3012 RMK A01 T03810094  RH  018%=      5-min Rain = 0
KMNS 111655Z 22011KT 38/08 A3012 RMK A01 T03820083  RH  017%=      5-min Rain = 0
KMNS 111700Z 23010KT 38/08 A3012 RMK A01 T03830075  RH  016%=      5-min Rain = 0
KMNS 111705Z 22010G15KT 39/07 A3012 RMK A01 T03850069  RH  015%=      5-min Rain = 0
KMNS 111710Z 23009KT 39/07 A3012 RMK A01 T03870067  RH  015%=      5-min Rain = 0
KMNS 111715Z 24010KT 39/07 A3011 RMK A01 T03870067  RH  015%=      5-min Rain = 0
KMNS 111720Z 23011KT 39/05 A3011 RMK A01 T03920052  RH  013%=      5-min Rain = 0
KMNS 111725Z 22009G14KT 39/03 A3011 RMK A01 T03910034  RH  011%=      5-min Rain = 0
KMNS 111730Z 22008G13KT 39/04 A3011 RMK A01 T03930037  RH  011%=      5-min Rain = 0
KMNS 111735Z 18011G16KT 40/03 A3011 RMK A01 T03970027  RH  010%=      5-min Rain = 0
KMNS 111740Z 22012G19KT 40/03 A3011 RMK A01 T03990029  RH  010%=      5-min Rain = 0
KMNS 111745Z 19012G18KT 40/02 A3011 RMK A01 T03970024  RH  010%=      5-min Rain = 0
KMNS 111750Z 20011G18KT 40/02 A3011 RMK A01 T03990019  RH  010%=      5-min Rain = 0
KMNS 111755Z 19014KT 41/02 A3011 RMK A01 T04060018  RH  009%=      5-min Rain = 0
KMNS 111800Z 19011G16KT 41/01 A3011 RMK A01 T04060013  RH  009%=      5-min Rain = 0
KMNS 111805Z 20011KT 41/02 A301 RMK A01 T04050018  RH  009%=      5-min Rain = 0
KMNS 111810Z 18014G20KT 40/02 A301 RMK A01 T04000015  RH  009%=      5-min Rain = 0
KMNS 111815Z 18012G18KT 40/02 A301 RMK A01 T04000021  RH  010%=      5-min Rain = 0
KMNS 111820Z 19012G17KT 41/02 A301 RMK A01 T04050019  RH  009%=      5-min Rain = 0
KMNS 111825Z 19013G19KT 41/02 A301 RMK A01 T04060019  RH  009%=      5-min Rain = 0
KMNS 111830Z 19014G19KT 41/02 A301 RMK A01 T04100016  RH  009%=      5-min Rain = 0
KMNS 111835Z 17014G20KT 40/02 A301 RMK A01 T04040021  RH  010%=      5-min Rain = 0
KMNS 111840Z 17012G17KT 41/03 A301 RMK A01 T04100026  RH  010%=      5-min Rain = 0
KMNS 111845Z 18014G19KT 41/03 A301 RMK A01 T04100027  RH  010%=      5-min Rain = 0
KMNS 111850Z 18013KT 41/02 A301 RMK A01 T04050020  RH  009%=      5-min Rain = 0
KMNS 111855Z 18011G17KT 40/03 A301 RMK A01 T04030029  RH  010%=      5-min Rain = 0
KMNS 111900Z 19014G19KT 41/02 A301 RMK A01 T04080021  RH  009%=      5-min Rain = 0
KMNS 111905Z 19011G17KT 41/02 A301 RMK A01 T04070019  RH  009%=      5-min Rain = 0
KMNS 111910Z 19012G19KT 41/03 A301 RMK A01 T04080027  RH  010%=      5-min Rain = 0
KMNS 111915Z 18009G16KT 41/03 A301 RMK A01 T04070028  RH  010%=      5-min Rain = 0
KMNS 111920Z 19011KT 41/03 A3009 RMK A01 T04110028  RH  010%=      5-min Rain = 0
KMNS 111925Z 20010G15KT 41/02 A3009 RMK A01 T04140023  RH  009%=      5-min Rain = 0
KMNS 111930Z 18012G17KT 41/03 A3009 RMK A01 T04090032  RH  010%=      5-min Rain = 0
KMNS 111935Z 21011KT 41/03 A3009 RMK A01 T04100026  RH  010%=      5-min Rain = 0
KMNS 111940Z 18012KT 41/02 A3008 RMK A01 T04130023  RH  009%=      5-min Rain = 0
KMNS 111945Z 17013KT 42/02 A3008 RMK A01 T04150024  RH  009%=      5-min Rain = 0
KMNS 111950Z 18012G20KT 41/02 A3008 RMK A01 T04110021  RH  009%=      5-min Rain = 0
KMNS 111955Z 19010G19KT 41/02 A3008 RMK A01 T04080022  RH  009%=      5-min Rain = 0
KMNS 112000Z 18011G18KT 41/02 A3008 RMK A01 T04100018  RH  009%=      5-min Rain = 0
KMNS 112005Z 18012G22KT 41/02 A3008 RMK A01 T04070021  RH  009%=      5-min Rain = 0
KMNS 112010Z 16010KT 41/02 A3008 RMK A01 T04100023  RH  009%=      5-min Rain = 0
KMNS 112015Z 20016G21KT 41/02 A3007 RMK A01 T04130021  RH  009%=      5-min Rain = 0
KMNS 112020Z 21010G17KT 41/02 A3007 RMK A01 T04130016  RH  009%=      5-min Rain = 0
KMNS 112025Z 18009G15KT 41/02 A3007 RMK A01 T04130022  RH  009%=      5-min Rain = 0
KMNS 112030Z 16011KT 42/03 A3007 RMK A01 T04150025  RH  009%=      5-min Rain = 0
KMNS 112035Z 19011G18KT 42/02 A3007 RMK A01 T04150023  RH  009%=      5-min Rain = 0
KMNS 112040Z 21010G18KT 41/02 A3007 RMK A01 T04130016  RH  009%=      5-min Rain = 0
KMNS 112045Z 18011G18KT 42/02 A3006 RMK A01 T04170022  RH  009%=      5-min Rain = 0
KMNS 112050Z 17012G20KT 41/02 A3006 RMK A01 T04140020  RH  009%=      5-min Rain = 0
KMNS 112055Z 16011KT 41/02 A3006 RMK A01 T04140020  RH  009%=      5-min Rain = 0
KMNS 112100Z 18009G19KT 42/02 A3006 RMK A01 T04150019  RH  009%=      5-min Rain = 0
KMNS 112105Z 17011G16KT 42/02 A3005 RMK A01 T04160019  RH  009%=      5-min Rain = 0
KMNS 112110Z 16012G18KT 42/02 A3005 RMK A01 T04160023  RH  009%=      5-min Rain = 0
KMNS 112115Z 17012G17KT 42/02 A3005 RMK A01 T04170017  RH  009%=      5-min Rain = 0
KMNS 112120Z 17009KT 42/02 A3004 RMK A01 T04180018  RH  009%=      5-min Rain = 0
KMNS 112125Z 16012G17KT 42/02 A3004 RMK A01 T04160019  RH  009%=      5-min Rain = 0
KMNS 112130Z 19013G19KT 42/02 A3004 RMK A01 T04170019  RH  009%=      5-min Rain = 0
KMNS 112135Z 19014G22KT 42/02 A3004 RMK A01 T04160017  RH  009%=      5-min Rain = 0
KMNS 112140Z 18010KT 41/02 A3004 RMK A01 T04140018  RH  009%=      5-min Rain = 0
KMNS 112145Z 19011G20KT 42/02 A3004 RMK A01 T04150017  RH  009%=      5-min Rain = 0
KMNS 112150Z 18012KT 41/01 A3004 RMK A01 T04140014  RH  009%=      5-min Rain = 0
KMNS 112155Z 17007KT 42/01 A3003 RMK A01 T04150013  RH  009%=      5-min Rain = 0
KMNS 112200Z 18010G20KT 41/02 A3003 RMK A01 T04140016  RH  009%=      5-min Rain = 0
KMNS 112205Z 20012G17KT 41/02 A3003 RMK A01 T04140015  RH  009%=      5-min Rain = 0
KMNS 112210Z 18013KT 42/01 A3003 RMK A01 T04170014  RH  009%=      5-min Rain = 0
KMNS 112215Z 19012G20KT 42/01 A3003 RMK A01 T04170013  RH  008%=      5-min Rain = 0
KMNS 112220Z 20012KT 42/01 A3003 RMK A01 T04150013  RH  009%=      5-min Rain = 0
KMNS 112225Z 20010G15KT 42/02 A3003 RMK A01 T04170016  RH  009%=      5-min Rain = 0
KMNS 112230Z 20009G21KT 41/02 A3002 RMK A01 T04140016  RH  009%=      5-min Rain = 0
KMNS 112235Z 19012G17KT 42/02 A3002 RMK A01 T04150017  RH  009%=      5-min Rain = 0
KMNS 112240Z 18012G17KT 42/02 A3002 RMK A01 T04170018  RH  009%=      5-min Rain = 0
KMNS 112245Z 18013KT 41/01 A3002 RMK A01 T04130014  RH  009%=      5-min Rain = 0
KMNS 112250Z 19009KT 41/02 A3002 RMK A01 T04120015  RH  009%=      5-min Rain = 0
KMNS 112255Z 18008KT 42/02 A3002 RMK A01 T04160019  RH  009%=      5-min Rain = 0
KMNS 112300Z 16010KT 42/02 A3001 RMK A01 T04170019  RH  009%=      5-min Rain = 0
KMNS 112305Z 17011G17KT 42/02 A3001 RMK A01 T04160021  RH  009%=      5-min Rain = 0
KMNS 112310Z 17010G16KT 41/02 A3001 RMK A01 T04140020  RH  009%=      5-min Rain = 0
KMNS 112315Z 19012KT 42/02 A3001 RMK A01 T04150016  RH  009%=      5-min Rain = 0
KMNS 112320Z 19011G16KT 41/02 A3001 RMK A01 T04120015  RH  009%=      5-min Rain = 0
KMNS 112325Z 18011G16KT 41/02 A3001 RMK A01 T04110021  RH  009%=      5-min Rain = 0
KMNS 112330Z 16011G18KT 41/03 A30 RMK A01 T04120025  RH  009%=      5-min Rain = 0
KMNS 112335Z 18012KT 41/02 A30 RMK A01 T04080019  RH  009%=      5-min Rain = 0
KMNS 112340Z 18012G17KT 41/02 A30 RMK A01 T04100019  RH  009%=      5-min Rain = 0
KMNS 112345Z 17010G15KT 41/02 A30 RMK A01 T04080019  RH  009%=      5-min Rain = 0
KMNS 112350Z 16012G17KT 41/02 A30 RMK A01 T04060020  RH  009%=      5-min Rain = 0
KMNS 112355Z 16008KT 41/02 A30 RMK A01 T04060021  RH  010%=      5-min Rain = 0
KMNS 120000Z 17011KT 41/03 A30 RMK A01 T04090026  RH  010%=      5-min Rain = 0
KMNS 120005Z 18012G17KT 41/02 A30 RMK A01 T04060024  RH  010%=      5-min Rain = 0
KMNS 120010Z 18013G18KT 40/02 A30 RMK A01 T04040022  RH  010%=      5-min Rain = 0
KMNS 120015Z 18012G17KT 40/02 A30 RMK A01 T04040022  RH  010%=      5-min Rain = 0
KMNS 120020Z 18011KT 40/02 A30 RMK A01 T04040021  RH  010%=      5-min Rain = 0
KMNS 120025Z 17011KT 40/03 A30 RMK A01 T04020025  RH  010%=      5-min Rain = 0
KMNS 120030Z 18011KT 40/03 A30 RMK A01 T04000027  RH  010%=      5-min Rain = 0
KMNS 120035Z 18013KT 40/02 A30 RMK A01 T04000023  RH  010%=      5-min Rain = 0
KMNS 120040Z 18009KT 40/03 A30 RMK A01 T03990025  RH  010%=      5-min Rain = 0
KMNS 120045Z 17011G16KT 40/03 A30 RMK A01 T03990028  RH  010%=      5-min Rain = 0
KMNS 120050Z 18013KT 40/03 A30 RMK A01 T03970027  RH  010%=      5-min Rain = 0
KMNS 120055Z 19014G20KT 40/03 A30 RMK A01 T03950026  RH  010%=      5-min Rain = 0
KMNS 120100Z 17015G20KT 39/03 A30 RMK A01 T03920028  RH  011%=      5-min Rain = 0
KMNS 120105Z 17015KT 39/03 A30 RMK A01 T03890029  RH  011%=      5-min Rain = 0
KMNS 120110Z 18014G19KT 39/03 A30 RMK A01 T03880031  RH  011%=      5-min Rain = 0
KMNS 120115Z 18015KT 39/03 A3001 RMK A01 T03870031  RH  011%=      5-min Rain = 0
KMNS 120120Z 17014G19KT 38/03 A30 RMK A01 T03840031  RH  011%=      5-min Rain = 0
KMNS 120125Z 17014KT 38/03 A30 RMK A01 T03820031  RH  012%=      5-min Rain = 0
KMNS 120130Z 17013G18KT 38/03 A30 RMK A01 T03790031  RH  012%=      5-min Rain = 0
KMNS 120135Z 17012G17KT 38/03 A3001 RMK A01 T03760031  RH  012%=      5-min Rain = 0
KMNS 120140Z 17011KT 37/03 A3001 RMK A01 T03730032  RH  012%=      5-min Rain = 0
KMNS 120145Z 17011KT 37/03 A3001 RMK A01 T03690034  RH  013%=      5-min Rain = 0
KMNS 120150Z 17012KT 37/03 A3001 RMK A01 T03690033  RH  013%=      5-min Rain = 0
KMNS 120155Z 17011KT 37/03 A3001 RMK A01 T03660033  RH  013%=      5-min Rain = 0
KMNS 120200Z 17010KT 36/03 A3001 RMK A01 T03630034  RH  013%=      5-min Rain = 0
KMNS 120205Z 17011KT 36/03 A3001 RMK A01 T03590034  RH  013%=      5-min Rain = 0
KMNS 120210Z 17011KT 36/03 A3001 RMK A01 T03570033  RH  014%=      5-min Rain = 0
KMNS 120215Z 17010KT 36/03 A3001 RMK A01 T03550033  RH  014%=      5-min Rain = 0
KMNS 120220Z 16010G16KT 35/03 A3001 RMK A01 T03540032  RH  014%=      5-min Rain = 0
KMNS 120225Z 17009KT 35/03 A3001 RMK A01 T03510033  RH  014%=      5-min Rain = 0
KMNS 120230Z 17010KT 35/03 A3001 RMK A01 T03480034  RH  014%=      5-min Rain = 0
KMNS 120235Z 17011KT 35/04 A3001 RMK A01 T03470037  RH  015%=      5-min Rain = 0
KMNS 120240Z 17010KT 34/04 A3001 RMK A01 T03440039  RH  015%=      5-min Rain = 0
KMNS 120245Z 17011KT 34/04 A3001 RMK A01 T03420041  RH  015%=      5-min Rain = 0
KMNS 120250Z 17010KT 34/04 A3002 RMK A01 T03410042  RH  016%=      5-min Rain = 0
KMNS 120255Z 17010G15KT 34/04 A3002 RMK A01 T03400043  RH  016%=      5-min Rain = 0
KMNS 120300Z 17011KT 34/04 A3002 RMK A01 T03380044  RH  016%=      5-min Rain = 0
KMNS 120305Z 17010G15KT 34/05 A3002 RMK A01 T03360045  RH  017%=      5-min Rain = 0
KMNS 120310Z 17010G15KT 33/05 A3002 RMK A01 T03340046  RH  017%=      5-min Rain = 0
KMNS 120315Z 17010G16KT 33/05 A3002 RMK A01 T03330046  RH  017%=      5-min Rain = 0
KMNS 120320Z 17011KT 33/05 A3002 RMK A01 T03320046  RH  017%=      5-min Rain = 0
KMNS 120325Z 17012KT 33/05 A3003 RMK A01 T03310047  RH  017%=      5-min Rain = 0
KMNS 120330Z 17011KT 33/05 A3003 RMK A01 T03310047  RH  017%=      5-min Rain = 0
KMNS 120335Z 17010G15KT 33/05 A3003 RMK A01 T03290047  RH  018%=      5-min Rain = 0
KMNS 120340Z 17010KT 33/05 A3003 RMK A01 T03270048  RH  018%=      5-min Rain = 0
KMNS 120345Z 17011KT 33/05 A3003 RMK A01 T03270047  RH  018%=      5-min Rain = 0
KMNS 120350Z 18012KT 33/05 A3003 RMK A01 T03270047  RH  018%=      5-min Rain = 0
KMNS 120355Z 18012KT 33/05 A3003 RMK A01 T03270047  RH  018%=      5-min Rain = 0
KMNS 120400Z 18011KT 32/05 A3003 RMK A01 T03240049  RH  018%=      5-min Rain = 0
KMNS 120405Z 18011KT 32/05 A3004 RMK A01 T03230050  RH  018%=      5-min Rain = 0
KMNS 120410Z 18011KT 32/05 A3004 RMK A01 T03220052  RH  019%=      5-min Rain = 0
KMNS 120415Z 18010KT 32/05 A3004 RMK A01 T03200053  RH  019%=      5-min Rain = 0
KMNS 120420Z 18010KT 32/05 A3004 RMK A01 T03180054  RH  020%=      5-min Rain = 0
KMNS 120425Z 19011KT 32/06 A3004 RMK A01 T03160055  RH  020%=      5-min Rain = 0
KMNS 120430Z 19010KT 31/06 A3004 RMK A01 T03120056  RH  020%=      5-min Rain = 0
KMNS 120435Z 19011KT 31/06 A3004 RMK A01 T03110057  RH  021%=      5-min Rain = 0
KMNS 120440Z 19010KT 31/06 A3004 RMK A01 T03080059  RH  021%=      5-min Rain = 0
KMNS 120445Z 20011KT 31/06 A3004 RMK A01 T03070060  RH  022%=      5-min Rain = 0
KMNS 120450Z 20012KT 31/06 A3004 RMK A01 T03050061  RH  022%=      5-min Rain = 0
KMNS 120455Z 20011KT 30/06 A3003 RMK A01 T03030060  RH  022%=      5-min Rain = 0

Page generated in 0.0154 seconds.